KMZZ/MZZ METAR and TAF weather

Enter ICAO airport designator
Station Type Date Time Source
KMZZ METAR 2019/05/19 06:15 UTC NOAA

KMZZ 190615Z AUTO 19005KT 10SM CLR 21/17 A2980 RMK AO2 T02140170


Station Type Date Time Source
KMZZ Decoded METAR 2019/05/19 06:15 UTC NOAA

Station name not available
May 19, 2019 - 02:15 AM EDT / 2019.05.19 0615 UTC
Wind: from the S (190 degrees) at 6 MPH (5 KT):0
Visibility: 10 mile(s):0
Sky conditions: clear
Temperature: 70.5 F (21.4 C)
Dew Point: 62.6 F (17.0 C)
Relative Humidity: 76%
Pressure (altimeter): 29.8 in. Hg (1009 hPa)
ob: KMZZ 190615Z AUTO 19005KT 10SM CLR 21/17 A2980 RMK AO2 T02140170
cycle: 6

Station Type Date Time Source
KMZZ TAF UTC NOAA

Error!

Example: see airport list